Mairena del Alcor, Spain
Current Conditions -  °F | °C
As of 7:30 PM on Thursday 23 Oct 2014 (Local Time) from LEZL Reporting Station
Clear Clear  
Wind Chill: 77°   Ceiling: Unl
Heat Index: 78°   Visibility: 6mi
Dew Point: 45°   Wind: 3mph
Humidity: 32%   Direction: 70°ENE
Pressure: 30.03"   Gusts: NA
Location:  37.37°N, 5.75°W
Report Text: LEZL 231730Z 07003KT CAVOK 25/07 Q1017 NOSIG
Loading
Personal Weather Stations






























Interactive Weather Map
Tropical Storm Tracking
New forecast layout! Learn more

10-Day Weather Forecast

Advertisements
Track Severe Weather on mobile